Time;durP1;ratioP1;P1;durP2;ratioP2;P2;SDS_P1;SDS_P2;PMS_P1;PMS_P2;Temp;Humidity;BMP_temperature;BMP_pressure;BME280_temperature;BME280_humidity;BME280_pressure;Samples;Min_cycle;Max_cycle;Signal;HPM_P1;HPM_P2
2023/06/10 00:01:59;;;;;;;3.53;3.23;;;27.40;49.30;;;;;;5089402;28;20189;-46
2023/06/10 00:04:30;;;;;;;3.53;3.23;;;27.40;49.30;;;;;;5088788;28;20185;-46
2023/06/10 00:07:08;;;;;;;3.57;3.23;;;27.40;49.30;;;;;;5085499;28;20570;-46
2023/06/10 00:09:44;;;;;;;5.27;3.40;;;27.40;49.30;;;;;;5078999;28;20193;-46
2023/06/10 00:12:16;;;;;;;3.80;3.43;;;27.40;49.20;;;;;;5072838;28;20185;-46
2023/06/10 00:14:45;;;;;;;4.93;3.40;;;27.40;49.20;;;;;;5088222;28;20219;-46
2023/06/10 00:17:12;;;;;;;4.27;3.40;;;27.40;49.20;;;;;;5090180;28;20285;-46
2023/06/10 00:19:40;;;;;;;3.10;2.90;;;27.30;49.20;;;;;;5085509;28;20224;-45
2023/06/10 00:22:13;;;;;;;3.50;3.20;;;27.30;49.20;;;;;;5081835;28;20553;-46
2023/06/10 00:24:43;;;;;;;3.40;2.90;;;27.40;49.30;;;;;;5089512;28;20349;-46
2023/06/10 00:27:14;;;;;;;3.60;3.30;;;27.40;49.20;;;;;;5088323;28;20287;-45
2023/06/10 00:29:44;;;;;;;3.37;3.17;;;27.40;49.20;;;;;;5087794;28;20213;-46
2023/06/10 00:32:22;;;;;;;4.10;3.13;;;27.30;49.20;;;;;;5088955;28;20213;-46
2023/06/10 00:34:51;;;;;;;4.00;3.30;;;27.30;49.10;;;;;;5072972;28;20568;-45
2023/06/10 00:37:19;;;;;;;3.67;3.20;;;27.30;49.10;;;;;;5088378;28;20599;-46
2023/06/10 00:39:56;;;;;;;3.30;3.07;;;27.30;49.20;;;;;;5090255;28;20232;-46
2023/06/10 00:42:27;;;;;;;3.73;3.30;;;27.30;49.20;;;;;;5096254;28;20193;-46
2023/06/10 00:44:56;;;;;;;3.70;3.20;;;27.30;49.20;;;;;;5094974;28;20195;-46
2023/06/10 00:47:25;;;;;;;4.40;3.73;;;27.20;49.10;;;;;;5073256;28;20205;-46
2023/06/10 00:49:53;;;;;;;3.43;3.13;;;27.30;49.20;;;;;;5057700;28;20194;-46
2023/06/10 00:52:31;;;;;;;3.33;3.10;;;27.20;49.10;;;;;;5091926;28;20275;-45
2023/06/10 00:55:00;;;;;;;3.63;3.27;;;27.20;49.10;;;;;;5088885;28;20201;-46
2023/06/10 00:57:34;;;;;;;4.60;3.43;;;27.20;49.10;;;;;;5091767;28;20197;-45
2023/06/10 01:00:07;;;;;;;3.47;3.17;;;27.20;49.10;;;;;;5092424;28;20244;-46
2023/06/10 01:02:38;;;;;;;3.40;3.10;;;27.20;49.10;;;;;;5085674;28;20219;-46
2023/06/10 01:05:11;;;;;;;3.63;3.23;;;27.20;49.10;;;;;;5088671;28;20248;-46
2023/06/10 01:08:12;;;;;;;3.37;3.07;;;27.20;49.10;;;;;;5093873;28;20514;-46
2023/06/10 01:10:55;;;;;;;3.33;3.03;;;27.20;49.10;;;;;;5088111;28;20203;-47
2023/06/10 01:13:28;;;;;;;3.50;3.20;;;27.20;49.10;;;;;;5091643;28;20267;-48
2023/06/10 01:16:01;;;;;;;5.13;3.07;;;27.10;49.10;;;;;;5074903;28;20832;-46
2023/06/10 01:18:32;;;;;;;3.37;3.07;;;27.10;49.10;;;;;;5087587;28;20221;-46
2023/06/10 01:21:07;;;;;;;3.40;3.10;;;27.10;49.10;;;;;;5094763;28;20313;-46
2023/06/10 01:23:38;;;;;;;3.30;3.00;;;27.10;49.10;;;;;;5096611;28;20485;-46
2023/06/10 01:26:11;;;;;;;2.97;2.67;;;27.10;49.10;;;;;;5082591;28;20236;-46
2023/06/10 01:29:04;;;;;;;3.13;2.87;;;27.10;49.00;;;;;;5082765;28;20197;-46
2023/06/10 01:31:54;;;;;;;3.57;3.27;;;27.10;49.00;;;;;;5071977;28;20197;-46
2023/06/10 01:34:26;;;;;;;4.07;3.20;;;27.10;49.00;;;;;;5082240;28;20193;-46
2023/06/10 01:37:17;;;;;;;3.50;3.20;;;27.10;49.10;;;;;;5080591;28;20188;-46
2023/06/10 01:39:48;;;;;;;3.70;3.40;;;27.10;49.10;;;;;;5085663;28;20643;-46
2023/06/10 01:42:21;;;;;;;3.50;3.20;;;27.00;49.70;;;;;;5091516;28;20285;-47
2023/06/10 01:44:54;;;;;;;3.27;2.97;;;27.00;49.00;;;;;;5090062;28;20428;-46
2023/06/10 01:47:27;;;;;;;3.60;3.30;;;27.10;49.00;;;;;;5081851;28;20204;-46
2023/06/10 01:49:57;;;;;;;3.43;3.13;;;27.00;49.00;;;;;;5090998;28;20190;-48
2023/06/10 01:52:26;;;;;;;3.70;3.27;;;27.00;49.00;;;;;;5090479;28;20216;-46
2023/06/10 01:54:55;;;;;;;3.93;3.50;;;27.00;49.00;;;;;;5086058;28;20297;-46
2023/06/10 01:57:26;;;;;;;3.47;3.17;;;27.00;49.00;;;;;;5091058;28;20635;-46
2023/06/10 01:59:58;;;;;;;3.50;3.20;;;27.00;49.00;;;;;;5090427;28;20217;-46
2023/06/10 02:02:32;;;;;;;3.30;3.07;;;27.00;49.00;;;;;;5090477;28;20192;-47
2023/06/10 02:05:05;;;;;;;4.47;3.07;;;27.00;49.10;;;;;;5067586;28;20281;-46
2023/06/10 02:07:39;;;;;;;3.23;2.93;;;27.00;49.00;;;;;;5080959;28;20193;-46
2023/06/10 02:10:09;;;;;;;3.67;3.37;;;27.00;49.10;;;;;;5071640;28;20188;-46
2023/06/10 02:12:40;;;;;;;3.87;2.80;;;27.00;49.00;;;;;;5076215;28;20204;-46
2023/06/10 02:15:12;;;;;;;3.53;3.23;;;27.00;49.10;;;;;;5096268;28;20228;-46
2023/06/10 02:17:42;;;;;;;3.40;3.10;;;27.00;49.10;;;;;;5093614;28;20332;-46
2023/06/10 02:20:17;;;;;;;3.53;3.23;;;27.00;48.90;;;;;;5083142;28;20274;-46
2023/06/10 02:22:47;;;;;;;3.80;3.43;;;27.00;49.00;;;;;;5081911;28;20239;-46
2023/06/10 02:25:17;;;;;;;3.30;2.87;;;27.00;49.10;;;;;;5094341;28;20231;-46
2023/06/10 02:27:46;;;;;;;3.83;2.90;;;26.90;49.60;;;;;;5090954;28;20204;-46
2023/06/10 02:30:16;;;;;;;2.93;2.73;;;27.00;49.10;;;;;;5088585;28;20233;-45
2023/06/10 02:32:47;;;;;;;3.60;3.00;;;26.90;49.00;;;;;;5087043;28;20210;-47
2023/06/10 02:35:20;;;;;;;3.30;3.00;;;26.90;49.00;;;;;;5073039;28;20549;-46
2023/06/10 02:37:52;;;;;;;3.60;3.30;;;26.90;49.00;;;;;;5084716;28;20178;-45
2023/06/10 02:40:23;;;;;;;3.57;3.10;;;26.90;49.00;;;;;;5090211;28;20212;-46
2023/06/10 02:42:53;;;;;;;3.23;2.83;;;26.90;49.00;;;;;;5084865;28;20205;-46
2023/06/10 02:45:24;;;;;;;3.93;3.20;;;26.90;49.00;;;;;;5089744;28;20197;-46
2023/06/10 02:47:55;;;;;;;3.70;3.30;;;26.90;49.00;;;;;;5089129;28;20544;-45
2023/06/10 02:50:22;;;;;;;3.30;3.07;;;26.90;48.90;;;;;;5078624;28;20212;-46
2023/06/10 02:52:54;;;;;;;3.30;3.00;;;26.90;48.90;;;;;;5085204;28;20197;-46
2023/06/10 02:55:26;;;;;;;3.33;3.03;;;26.90;48.90;;;;;;5095677;28;20204;-46
2023/06/10 02:57:59;;;;;;;3.87;3.47;;;26.90;48.80;;;;;;5083684;28;20180;-47
2023/06/10 03:00:28;;;;;;;3.57;3.27;;;26.90;49.00;;;;;;5094347;28;20220;-45
2023/06/10 03:03:03;;;;;;;3.50;3.20;;;26.80;49.00;;;;;;5078997;28;20262;-46
2023/06/10 03:05:32;;;;;;;3.73;3.40;;;26.80;49.00;;;;;;5073141;28;20221;-46
2023/06/10 03:08:04;;;;;;;3.73;3.43;;;26.80;49.00;;;;;;5052676;28;20213;-46
2023/06/10 03:10:33;;;;;;;3.57;3.27;;;26.80;48.80;;;;;;5081572;28;20200;-45
2023/06/10 03:13:04;;;;;;;3.67;2.90;;;26.80;48.90;;;;;;5089451;28;20420;-46
2023/06/10 03:15:37;;;;;;;3.87;3.20;;;26.80;49.00;;;;;;5084921;28;20563;-46
2023/06/10 03:18:09;;;;;;;3.10;2.90;;;26.80;49.00;;;;;;5087494;28;20737;-47
2023/06/10 03:20:39;;;;;;;3.70;3.40;;;26.80;49.00;;;;;;5087251;28;20228;-46
2023/06/10 03:23:13;;;;;;;3.60;3.30;;;26.80;49.00;;;;;;5090167;28;20800;-46
2023/06/10 03:25:45;;;;;;;3.90;3.50;;;26.80;49.10;;;;;;5088819;28;20216;-46
2023/06/10 03:28:15;;;;;;;3.97;3.67;;;26.80;49.00;;;;;;5071171;28;20270;-46
2023/06/10 03:30:45;;;;;;;3.57;3.27;;;26.80;49.10;;;;;;5084328;28;20615;-46
2023/06/10 03:33:15;;;;;;;4.20;3.73;;;26.70;49.00;;;;;;5071205;28;20201;-46
2023/06/10 03:35:46;;;;;;;3.73;3.00;;;26.70;49.00;;;;;;5088939;28;20189;-46
2023/06/10 03:38:18;;;;;;;3.97;3.67;;;26.70;48.90;;;;;;5082934;28;20193;-46
2023/06/10 03:40:49;;;;;;;3.60;3.30;;;26.70;49.00;;;;;;5079306;28;20233;-46
2023/06/10 03:43:21;;;;;;;3.67;3.37;;;26.70;48.90;;;;;;5059532;28;20201;-46
2023/06/10 03:45:52;;;;;;;3.53;3.23;;;26.70;49.00;;;;;;5086650;28;20196;-45
2023/06/10 03:48:24;;;;;;;3.93;3.50;;;26.70;49.00;;;;;;5089714;28;20204;-46
2023/06/10 03:50:54;;;;;;;4.03;3.70;;;26.70;49.10;;;;;;5070115;28;20197;-46
2023/06/10 03:53:25;;;;;;;3.80;3.50;;;26.70;49.00;;;;;;5087638;28;20753;-45
2023/06/10 03:55:57;;;;;;;3.60;3.30;;;26.70;49.00;;;;;;5088845;28;20192;-45
2023/06/10 03:58:27;;;;;;;3.50;3.20;;;26.70;49.00;;;;;;5093743;28;20211;-46
2023/06/10 04:00:59;;;;;;;3.57;3.27;;;26.70;49.10;;;;;;5083083;28;20216;-46
2023/06/10 04:03:27;;;;;;;3.50;3.20;;;26.70;49.00;;;;;;5090551;28;20185;-46
2023/06/10 04:06:05;;;;;;;3.57;3.33;;;26.70;49.10;;;;;;5086889;28;20240;-45
2023/06/10 04:08:39;;;;;;;3.83;3.53;;;26.70;49.10;;;;;;5070057;28;20196;-46
2023/06/10 04:11:10;;;;;;;3.63;3.33;;;26.70;49.10;;;;;;5087932;28;20185;-46
2023/06/10 04:13:38;;;;;;;3.87;3.57;;;26.70;49.10;;;;;;5070856;28;20212;-46
2023/06/10 04:16:10;;;;;;;4.17;3.40;;;26.60;49.00;;;;;;5093154;28;20249;-45
2023/06/10 04:18:42;;;;;;;4.17;3.77;;;26.60;49.00;;;;;;5080619;28;20207;-46
2023/06/10 04:21:12;;;;;;;3.63;3.33;;;26.60;49.00;;;;;;5093159;28;20189;-44
2023/06/10 04:23:42;;;;;;;3.77;3.47;;;26.60;49.00;;;;;;5093741;28;20189;-46
2023/06/10 04:26:12;;;;;;;3.53;3.30;;;26.60;49.10;;;;;;5091983;28;20734;-45
2023/06/10 04:28:45;;;;;;;3.97;3.67;;;26.60;49.00;;;;;;5087613;28;20224;-47
2023/06/10 04:31:15;;;;;;;3.63;3.33;;;26.60;49.10;;;;;;5092074;28;20193;-44
2023/06/10 04:33:45;;;;;;;3.97;3.13;;;26.60;49.10;;;;;;5067034;28;20276;-46
2023/06/10 04:36:16;;;;;;;3.90;3.60;;;26.60;49.10;;;;;;5084430;28;20193;-46
2023/06/10 04:38:48;;;;;;;4.23;3.83;;;26.60;49.10;;;;;;5085736;28;20521;-45
2023/06/10 04:41:19;;;;;;;6.43;3.93;;;26.50;49.10;;;;;;5090236;28;20217;-46
2023/06/10 04:43:51;;;;;;;4.00;3.70;;;26.60;49.10;;;;;;5096156;28;20680;-46
2023/06/10 04:46:23;;;;;;;4.40;4.00;;;26.50;49.10;;;;;;5075158;28;20200;-46
2023/06/10 04:48:54;;;;;;;4.27;3.87;;;26.50;49.10;;;;;;5089202;28;20185;-46
2023/06/10 04:51:28;;;;;;;3.83;3.53;;;26.50;49.10;;;;;;5093191;28;20208;-44
2023/06/10 04:54:03;;;;;;;4.37;3.97;;;26.50;49.10;;;;;;5072559;28;20209;-47
2023/06/10 04:56:33;;;;;;;4.17;3.70;;;26.50;49.10;;;;;;5090633;28;20910;-46
2023/06/10 04:59:03;;;;;;;4.00;3.70;;;26.50;49.10;;;;;;5086665;28;20619;-46
2023/06/10 05:01:36;;;;;;;4.30;3.90;;;26.50;49.20;;;;;;5087790;28;20196;-46
2023/06/10 05:04:07;;;;;;;4.33;4.00;;;26.50;49.10;;;;;;5095701;28;20204;-46
2023/06/10 05:06:39;;;;;;;4.20;3.90;;;26.50;49.10;;;;;;5093932;28;20224;-46
2023/06/10 05:09:09;;;;;;;4.60;4.20;;;26.50;49.10;;;;;;5088627;28;20599;-46
2023/06/10 05:11:41;;;;;;;4.80;4.40;;;26.50;49.20;;;;;;5070689;28;20181;-45
2023/06/10 05:14:12;;;;;;;4.80;4.17;;;26.50;49.30;;;;;;5095172;28;20189;-46
2023/06/10 05:16:40;;;;;;;6.63;4.60;;;26.50;49.30;;;;;;5072467;28;20604;-45
2023/06/10 05:19:16;;;;;;;13.67;6.07;;;26.50;49.30;;;;;;5074509;28;20201;-46
2023/06/10 05:21:47;;;;;;;21.90;8.23;;;26.50;49.30;;;;;;5094214;28;20222;-46
2023/06/10 05:24:19;;;;;;;19.10;8.53;;;26.50;49.30;;;;;;5097508;28;20200;-46
2023/06/10 05:26:58;;;;;;;19.20;9.17;;;26.50;49.30;;;;;;5086264;28;20316;-45
2023/06/10 05:29:26;;;;;;;19.67;9.33;;;26.50;49.30;;;;;;5091609;28;20563;-45
2023/06/10 05:32:02;;;;;;;15.93;8.60;;;26.50;49.30;;;;;;5075809;28;20197;-46
2023/06/10 05:34:32;;;;;;;20.43;8.87;;;26.50;49.40;;;;;;5088764;28;20258;-45
2023/06/10 05:37:04;;;;;;;15.67;8.30;;;26.40;49.30;;;;;;5099803;28;20193;-45
2023/06/10 05:39:37;;;;;;;15.93;9.00;;;26.40;49.20;;;;;;5086293;28;20591;-44
2023/06/10 05:42:08;;;;;;;15.03;8.80;;;26.50;49.30;;;;;;5085987;28;20208;-44
2023/06/10 05:44:38;;;;;;;14.23;8.33;;;26.40;49.30;;;;;;5087200;28;20553;-45
2023/06/10 05:47:10;;;;;;;15.60;7.97;;;26.40;49.30;;;;;;5071665;28;20208;-44
2023/06/10 05:49:40;;;;;;;16.63;9.03;;;26.40;49.30;;;;;;5095189;28;20554;-46
2023/06/10 05:52:11;;;;;;;14.33;8.27;;;26.40;49.30;;;;;;5090211;28;20197;-44
2023/06/10 05:54:43;;;;;;;20.33;8.77;;;26.50;49.40;;;;;;5079826;28;20209;-47
2023/06/10 05:57:11;;;;;;;12.87;8.33;;;26.40;49.30;;;;;;5073082;28;20556;-46
2023/06/10 05:59:41;;;;;;;15.97;8.83;;;26.40;49.30;;;;;;5070802;28;20217;-46
2023/06/10 06:02:13;;;;;;;14.67;7.90;;;26.40;49.30;;;;;;5081383;28;20491;-45
2023/06/10 06:04:44;;;;;;;14.00;7.73;;;26.40;49.30;;;;;;5083835;28;20177;-45
2023/06/10 06:07:14;;;;;;;13.50;7.73;;;26.40;49.30;;;;;;5081398;28;20209;-45
2023/06/10 06:09:44;;;;;;;11.33;6.73;;;26.40;49.30;;;;;;5086341;28;20193;-45
2023/06/10 06:12:13;;;;;;;11.30;7.63;;;26.40;49.30;;;;;;5090429;28;20201;-46
2023/06/10 06:14:45;;;;;;;12.83;6.70;;;26.50;49.40;;;;;;5087957;28;20216;-45
2023/06/10 06:17:15;;;;;;;14.67;7.53;;;26.40;49.40;;;;;;5088530;28;20798;-45
2023/06/10 06:19:47;;;;;;;11.13;7.17;;;26.40;49.40;;;;;;5072222;28;20291;-45
2023/06/10 06:22:20;;;;;;;9.73;6.80;;;26.40;49.30;;;;;;5090929;28;20197;-46
2023/06/10 06:24:51;;;;;;;8.60;7.13;;;26.40;49.30;;;;;;5060896;28;20196;-46
2023/06/10 06:27:28;;;;;;;10.03;6.97;;;26.40;49.30;;;;;;5071798;28;20287;-45
2023/06/10 06:30:04;;;;;;;9.97;6.47;;;26.40;49.30;;;;;;5058091;28;20296;-45
2023/06/10 06:32:37;;;;;;;10.47;6.73;;;26.50;49.40;;;;;;5069687;28;20217;-45
2023/06/10 06:35:08;;;;;;;8.50;6.20;;;26.40;49.30;;;;;;5090046;28;20219;-45
2023/06/10 06:37:38;;;;;;;6.87;5.77;;;26.40;49.30;;;;;;5090363;28;20202;-45
2023/06/10 06:40:08;;;;;;;10.80;7.40;;;26.40;49.30;;;;;;5073355;28;20575;-45
2023/06/10 06:42:36;;;;;;;9.37;6.50;;;26.40;49.30;;;;;;5071513;28;20289;-45
2023/06/10 06:45:06;;;;;;;10.60;5.87;;;26.40;49.30;;;;;;5091591;28;20272;-46
2023/06/10 06:47:38;;;;;;;10.97;7.20;;;26.40;49.30;;;;;;5092011;28;20314;-46
2023/06/10 06:50:08;;;;;;;9.50;6.70;;;26.40;49.30;;;;;;5090758;28;20636;-45
2023/06/10 06:52:42;;;;;;;8.47;6.40;;;26.50;49.40;;;;;;5071633;28;20204;-45
2023/06/10 06:55:17;;;;;;;8.47;6.23;;;26.40;49.90;;;;;;5070082;28;20206;-46
2023/06/10 06:57:45;;;;;;;10.47;6.70;;;26.40;49.30;;;;;;5071769;28;20626;-45
2023/06/10 07:00:16;;;;;;;11.00;6.03;;;26.40;49.30;;;;;;5090119;28;20217;-44
2023/06/10 07:02:45;;;;;;;6.53;5.67;;;26.40;49.30;;;;;;5096141;28;20308;-45
2023/06/10 07:05:15;;;;;;;6.83;5.97;;;26.40;49.30;;;;;;5096129;28;20288;-44
2023/06/10 07:07:54;;;;;;;8.07;6.23;;;26.50;49.30;;;;;;5093653;28;20223;-46
2023/06/10 07:10:27;;;;;;;8.67;5.97;;;26.40;49.30;;;;;;5091590;28;20188;-45
2023/06/10 07:12:55;;;;;;;8.40;6.40;;;26.50;49.30;;;;;;5078803;28;20399;-44
2023/06/10 07:15:26;;;;;;;11.00;6.57;;;26.50;49.30;;;;;;5096255;28;20308;-44
2023/06/10 07:17:57;;;;;;;8.20;5.97;;;26.50;49.40;;;;;;5072563;28;20220;-45
2023/06/10 07:20:26;;;;;;;7.63;5.90;;;26.50;49.30;;;;;;5082400;28;20217;-45
2023/06/10 07:22:56;;;;;;;7.97;5.67;;;26.40;49.20;;;;;;5093029;28;20189;-45
2023/06/10 07:25:28;;;;;;;7.50;5.37;;;26.50;49.30;;;;;;5096181;28;20232;-44
2023/06/10 07:27:58;;;;;;;11.57;5.43;;;26.50;49.30;;;;;;5098622;28;20626;-45
2023/06/10 07:30:42;;;;;;;6.80;5.57;;;26.50;49.30;;;;;;5093839;28;20642;-45
2023/06/10 07:33:13;;;;;;;7.60;6.00;;;26.50;49.40;;;;;;5080923;28;20197;-44
2023/06/10 07:35:42;;;;;;;9.57;5.50;;;26.50;49.40;;;;;;5096915;28;20265;-44
2023/06/10 07:38:13;;;;;;;6.10;5.03;;;26.50;49.30;;;;;;5094408;28;20526;-47
2023/06/10 07:40:43;;;;;;;6.50;5.27;;;26.50;49.40;;;;;;5089867;28;20220;-46
2023/06/10 07:43:13;;;;;;;6.47;5.17;;;26.50;49.40;;;;;;5088663;28;20181;-45
2023/06/10 07:45:43;;;;;;;7.13;5.20;;;26.50;49.40;;;;;;5080520;28;20185;-46
2023/06/10 07:48:13;;;;;;;6.87;5.47;;;26.50;49.40;;;;;;5096385;28;20618;-46
2023/06/10 07:50:43;;;;;;;6.17;5.57;;;26.50;49.40;;;;;;5093252;28;20205;-44
2023/06/10 07:53:15;;;;;;;7.57;5.57;;;26.50;49.40;;;;;;5053578;28;20221;-45
2023/06/10 07:55:46;;;;;;;6.07;5.40;;;26.50;49.40;;;;;;5090155;28;20193;-45
2023/06/10 07:58:18;;;;;;;5.93;5.13;;;26.60;49.50;;;;;;5083557;28;20261;-44
2023/06/10 08:00:50;;;;;;;7.83;5.47;;;26.50;49.40;;;;;;5087045;28;20220;-45
2023/06/10 08:03:21;;;;;;;5.97;5.17;;;26.50;49.40;;;;;;5091333;28;20534;-45
2023/06/10 08:05:51;;;;;;;6.90;5.10;;;26.50;49.40;;;;;;5091996;28;20835;-44
2023/06/10 08:08:21;;;;;;;6.43;4.97;;;26.60;49.50;;;;;;5080177;28;20185;-46
2023/06/10 08:10:52;;;;;;;5.27;4.70;;;26.50;49.40;;;;;;5076050;28;20220;-45
2023/06/10 08:13:23;;;;;;;6.33;4.63;;;26.50;49.40;;;;;;5088274;28;20197;-45
2023/06/10 08:15:56;;;;;;;5.73;5.20;;;26.60;49.60;;;;;;5096732;28;20212;-45
2023/06/10 08:18:28;;;;;;;6.10;5.20;;;26.60;49.60;;;;;;5092791;28;20212;-45
2023/06/10 08:20:57;;;;;;;5.17;4.67;;;26.60;49.60;;;;;;5094138;28;20856;-45
2023/06/10 08:23:27;;;;;;;5.60;5.00;;;26.60;49.60;;;;;;5088336;28;20587;-45
2023/06/10 08:25:58;;;;;;;5.37;4.80;;;26.60;49.60;;;;;;5063714;28;20733;-45
2023/06/10 08:28:30;;;;;;;6.77;5.23;;;26.60;49.60;;;;;;5048185;28;20206;-45
2023/06/10 08:30:57;;;;;;;5.40;4.90;;;26.60;49.60;;;;;;5048950;28;20228;-45
2023/06/10 08:33:29;;;;;;;6.13;5.13;;;26.60;49.60;;;;;;5048731;28;20202;-45
2023/06/10 08:36:00;;;;;;;6.00;5.43;;;26.60;49.60;;;;;;5040507;28;20196;-46
2023/06/10 08:38:30;;;;;;;5.93;5.33;;;26.70;50.30;;;;;;5042827;28;20203;-44
2023/06/10 08:41:05;;;;;;;6.37;4.23;;;26.60;49.60;;;;;;5045832;28;20242;-46
2023/06/10 08:43:40;;;;;;;5.97;5.37;;;26.70;49.70;;;;;;5048362;28;20202;-45
2023/06/10 08:46:24;;;;;;;6.80;5.27;;;26.70;49.70;;;;;;5034859;28;20810;-45
2023/06/10 08:48:56;;;;;;;6.83;4.93;;;26.70;50.30;;;;;;5047245;28;20289;-44
2023/06/10 08:51:28;;;;;;;5.70;4.70;;;26.70;49.70;;;;;;5012206;28;20206;-46
2023/06/10 08:54:06;;;;;;;5.13;4.63;;;26.70;49.70;;;;;;5044392;28;20206;-46
2023/06/10 08:56:44;;;;;;;5.93;4.83;;;26.70;49.70;;;;;;5033851;28;20280;-46
2023/06/10 08:59:13;;;;;;;6.23;5.00;;;26.70;49.70;;;;;;5035930;28;20194;-46
2023/06/10 09:01:46;;;;;;;5.27;4.70;;;26.70;49.70;;;;;;5022744;28;20301;-46
2023/06/10 09:04:17;;;;;;;5.43;4.73;;;26.70;49.70;;;;;;5052448;28;20203;-47
2023/06/10 09:06:48;;;;;;;5.33;4.83;;;26.80;49.80;;;;;;5040111;28;20210;-46
2023/06/10 09:09:20;;;;;;;5.53;5.03;;;26.80;49.90;;;;;;5049962;28;20198;-46
2023/06/10 09:12:09;;;;;;;4.87;4.37;;;26.80;50.00;;;;;;5034081;28;20558;-46
2023/06/10 09:14:41;;;;;;;6.23;4.50;;;26.80;50.00;;;;;;5043572;28;20205;-46
2023/06/10 09:17:11;;;;;;;5.23;4.33;;;26.80;50.00;;;;;;5031402;28;20222;-45
2023/06/10 09:19:44;;;;;;;6.20;4.43;;;26.80;50.00;;;;;;5021050;28;20207;-45
2023/06/10 09:22:11;;;;;;;5.13;4.63;;;26.80;50.10;;;;;;5053391;28;20214;-45
2023/06/10 09:24:46;;;;;;;5.30;4.80;;;26.80;50.10;;;;;;5030308;28;20255;-46
2023/06/10 09:27:14;;;;;;;5.77;4.63;;;26.80;50.00;;;;;;5047918;28;20210;-45
2023/06/10 09:29:58;;;;;;;5.37;4.87;;;26.90;50.10;;;;;;5051307;28;20210;-45
2023/06/10 09:32:39;;;;;;;5.43;4.93;;;26.90;50.10;;;;;;5042104;28;20294;-46
2023/06/10 09:35:24;;;;;;;5.50;4.57;;;26.90;50.10;;;;;;5037658;28;20549;-45
2023/06/10 09:38:02;;;;;;;5.20;4.80;;;26.90;50.20;;;;;;5038414;28;20186;-45
2023/06/10 09:40:40;;;;;;;6.13;4.77;;;26.90;50.20;;;;;;5050074;28;20206;-44
2023/06/10 09:43:07;;;;;;;4.93;4.40;;;26.90;50.20;;;;;;5047350;28;20198;-46
2023/06/10 09:45:35;;;;;;;6.33;4.80;;;27.00;50.20;;;;;;5054773;28;20789;-46
2023/06/10 09:48:05;;;;;;;6.60;4.70;;;27.00;50.30;;;;;;5055036;28;20261;-46
2023/06/10 09:50:41;;;;;;;5.70;4.80;;;26.90;50.20;;;;;;5050356;28;20206;-46
2023/06/10 09:53:26;;;;;;;6.90;5.00;;;27.00;50.30;;;;;;5025828;28;20288;-46
2023/06/10 09:55:59;;;;;;;5.27;4.77;;;27.00;50.20;;;;;;5052148;28;20195;-45
2023/06/10 09:58:37;;;;;;;5.00;4.50;;;27.00;50.20;;;;;;5047447;28;20222;-46
2023/06/10 10:01:21;;;;;;;4.83;4.43;;;27.00;50.80;;;;;;5047655;28;20226;-47
2023/06/10 10:03:53;;;;;;;5.60;4.83;;;27.00;50.90;;;;;;5051135;28;20191;-46
2023/06/10 10:06:26;;;;;;;7.93;4.90;;;27.00;50.30;;;;;;5049457;28;20302;-46
2023/06/10 10:08:58;;;;;;;6.17;4.90;;;27.10;50.40;;;;;;5030518;28;20195;-46
2023/06/10 10:11:33;;;;;;;5.20;4.70;;;27.10;50.90;;;;;;5049093;28;20202;-46
2023/06/10 10:14:05;;;;;;;4.67;4.27;;;27.10;50.30;;;;;;5021417;28;20206;-47
2023/06/10 10:16:40;;;;;;;6.03;4.43;;;27.10;50.30;;;;;;5012535;28;20210;-45
2023/06/10 10:19:50;;;;;;;5.43;4.67;;;27.10;50.40;;;;;;5028211;28;20569;-46
2023/06/10 10:22:33;;;;;;;4.80;4.40;;;27.20;50.40;;;;;;5020830;28;20245;-45
2023/06/10 10:25:42;;;;;;;5.20;4.70;;;27.20;50.40;;;;;;5032811;28;20277;-45
2023/06/10 10:28:15;;;;;;;6.03;5.03;;;27.20;50.40;;;;;;5013817;28;20213;-44
2023/06/10 10:30:59;;;;;;;5.87;4.97;;;27.20;50.40;;;;;;5001759;28;20257;-44
2023/06/10 10:33:59;;;;;;;5.07;4.67;;;27.20;50.30;;;;;;5002669;28;20215;-45
2023/06/10 10:36:29;;;;;;;5.40;4.83;;;27.20;50.40;;;;;;5042140;28;20217;-45
2023/06/10 10:38:58;;;;;;;7.00;4.87;;;27.30;50.40;;;;;;5063959;28;20209;-53
2023/06/10 10:41:31;;;;;;;5.93;5.07;;;27.30;50.30;;;;;;5067132;28;20245;-45
2023/06/10 10:44:02;;;;;;;5.97;4.60;;;27.30;50.30;;;;;;5057153;28;20197;-45
2023/06/10 10:46:42;;;;;;;5.27;4.73;;;27.30;50.40;;;;;;5067246;28;20210;-45
2023/06/10 10:49:22;;;;;;;5.43;4.80;;;27.40;50.50;;;;;;5070516;28;20225;-45
2023/06/10 10:51:57;;;;;;;6.17;4.90;;;27.30;50.60;;;;;;5052976;28;20207;-44
2023/06/10 10:54:39;;;;;;;4.80;4.40;;;27.40;50.80;;;;;;5032290;28;20215;-45
2023/06/10 10:57:15;;;;;;;6.03;4.87;;;27.40;50.70;;;;;;5065899;28;20248;-45
2023/06/10 11:00:01;;;;;;;5.23;4.37;;;27.40;50.90;;;;;;5069038;28;20257;-44
2023/06/10 11:02:45;;;;;;;5.10;4.50;;;27.40;50.80;;;;;;5067984;28;20362;-44
2023/06/10 11:05:30;;;;;;;5.10;4.60;;;27.50;50.80;;;;;;5067258;28;20209;-45
2023/06/10 11:08:00;;;;;;;5.13;4.63;;;27.50;50.80;;;;;;5068802;28;20198;-45
2023/06/10 11:10:35;;;;;;;5.30;4.73;;;27.50;50.70;;;;;;5067732;28;20196;-46
2023/06/10 11:13:15;;;;;;;5.10;4.70;;;27.50;50.70;;;;;;5069639;28;20231;-45
2023/06/10 11:15:49;;;;;;;5.00;4.60;;;27.60;50.70;;;;;;5070027;28;20201;-45
2023/06/10 11:18:29;;;;;;;5.33;4.83;;;27.60;50.70;;;;;;5066409;28;20216;-45
2023/06/10 11:21:10;;;;;;;6.93;5.10;;;27.60;50.70;;;;;;5069695;28;20213;-46
2023/06/10 11:23:43;;;;;;;5.30;4.80;;;27.60;50.80;;;;;;5069776;28;20196;-44
2023/06/10 11:26:32;;;;;;;7.73;5.07;;;27.60;50.70;;;;;;5068165;28;20780;-45
2023/06/10 11:29:08;;;;;;;5.47;4.97;;;27.70;50.70;;;;;;5065697;28;20225;-45
2023/06/10 11:31:40;;;;;;;5.33;4.80;;;27.70;50.70;;;;;;5068730;28;20208;-45
2023/06/10 11:34:10;;;;;;;6.03;4.90;;;27.70;50.70;;;;;;5068723;28;20199;-44
2023/06/10 11:36:42;;;;;;;6.13;5.03;;;27.70;50.70;;;;;;5070426;28;20194;-45
2023/06/10 11:39:11;;;;;;;5.43;4.93;;;27.80;50.80;;;;;;5064780;28;20540;-45
2023/06/10 11:41:43;;;;;;;6.30;5.00;;;27.80;50.80;;;;;;5051625;28;20226;-45
2023/06/10 11:44:14;;;;;;;5.23;4.73;;;27.80;50.70;;;;;;5066108;28;20186;-46
2023/06/10 11:46:51;;;;;;;4.80;4.30;;;27.90;50.60;;;;;;5065995;28;20197;-45
2023/06/10 11:49:21;;;;;;;4.83;4.40;;;27.90;50.50;;;;;;5068461;28;20198;-44
2023/06/10 11:51:56;;;;;;;5.30;4.80;;;27.90;50.30;;;;;;5056464;28;20600;-46
2023/06/10 11:54:25;;;;;;;7.60;5.60;;;27.90;50.30;;;;;;5066716;28;20628;-46
2023/06/10 11:56:59;;;;;;;5.53;4.97;;;27.90;50.30;;;;;;5065961;28;20197;-47
2023/06/10 11:59:32;;;;;;;5.40;4.90;;;28.00;50.30;;;;;;5068622;28;20196;-46
2023/06/10 12:02:01;;;;;;;5.17;4.67;;;28.00;50.30;;;;;;5058567;28;20229;-47
2023/06/10 12:04:31;;;;;;;5.20;4.70;;;28.00;50.10;;;;;;5067179;28;20208;-44
2023/06/10 12:07:00;;;;;;;4.70;4.30;;;28.00;50.00;;;;;;5068088;28;20576;-46
2023/06/10 12:09:32;;;;;;;7.13;4.77;;;28.00;50.00;;;;;;5051472;28;20282;-46
2023/06/10 12:12:08;;;;;;;4.53;4.13;;;28.10;50.10;;;;;;5063564;28;20271;-46
2023/06/10 12:15:07;;;;;;;5.23;4.73;;;28.10;50.20;;;;;;5066479;28;20263;-46
2023/06/10 12:17:42;;;;;;;5.20;4.70;;;28.10;50.40;;;;;;5048011;28;20213;-45
2023/06/10 12:20:33;;;;;;;6.80;4.93;;;28.10;50.50;;;;;;5068022;28;20221;-44
2023/06/10 12:23:10;;;;;;;7.03;5.40;;;28.10;50.30;;;;;;5067248;28;20214;-46
2023/06/10 12:25:51;;;;;;;5.83;4.70;;;28.20;50.20;;;;;;5062847;28;20230;-46
2023/06/10 12:28:26;;;;;;;5.07;4.57;;;28.20;50.10;;;;;;5047471;28;20202;-46
2023/06/10 12:31:10;;;;;;;4.93;4.43;;;28.20;50.10;;;;;;5028950;28;20631;-44
2023/06/10 12:33:40;;;;;;;5.67;4.83;;;28.30;50.10;;;;;;5048602;28;20194;-45
2023/06/10 12:36:17;;;;;;;5.27;4.77;;;28.20;50.20;;;;;;5051043;28;20191;-46
2023/06/10 12:38:50;;;;;;;5.33;4.90;;;28.30;50.40;;;;;;5021692;28;20220;-45
2023/06/10 12:41:46;;;;;;;5.07;4.60;;;28.30;51.00;;;;;;5037812;28;20731;-45
2023/06/10 12:44:29;;;;;;;4.67;4.27;;;28.30;50.40;;;;;;5034537;28;20289;-45
2023/06/10 12:47:06;;;;;;;4.80;4.37;;;28.30;50.30;;;;;;5047918;28;20693;-46
2023/06/10 12:49:38;;;;;;;5.33;4.70;;;28.40;50.30;;;;;;5018436;28;20191;-47
2023/06/10 12:52:07;;;;;;;4.90;4.37;;;28.40;50.30;;;;;;5052346;28;20786;-46
2023/06/10 12:54:35;;;;;;;5.03;4.63;;;28.40;50.30;;;;;;5042334;28;20230;-46
2023/06/10 12:57:06;;;;;;;5.00;4.53;;;28.50;50.20;;;;;;5052743;28;20312;-45
2023/06/10 12:59:36;;;;;;;5.77;5.20;;;28.40;49.90;;;;;;5052376;28;20597;-45
2023/06/10 13:02:13;;;;;;;5.03;4.53;;;28.50;49.70;;;;;;5039479;28;20598;-45
2023/06/10 13:04:51;;;;;;;4.70;4.30;;;28.50;49.70;;;;;;5043090;28;20179;-44
2023/06/10 13:07:22;;;;;;;5.50;5.07;;;28.50;49.80;;;;;;5026748;28;20255;-46
2023/06/10 13:09:55;;;;;;;5.33;4.70;;;28.50;50.00;;;;;;5034676;28;20276;-46
2023/06/10 13:12:30;;;;;;;4.57;4.10;;;28.50;49.90;;;;;;5032473;28;20211;-45
2023/06/10 13:15:14;;;;;;;5.20;4.70;;;28.60;50.10;;;;;;5052840;28;20194;-45
2023/06/10 13:17:48;;;;;;;5.10;4.70;;;28.60;50.20;;;;;;5032319;28;20536;-44